Autryville, NC

2:59 PM EDT on August 27, 2016 (GMT -0400)
Big Creek | | Change Station

Elev 98 ft 35.04 °N, 78.67 °W | Updated 16 seconds ago

Overcast
Overcast
93.6 °F
Feels Like 109 °F
N
2.9
Wind Variable Wind from NE
Gusts 3.0 mph

Today
High -- | Low -- °F
--% Chance of Precip.
Yesterday
High -- | Low -- °F
Precip. -- in
Pressure 30.09 in
Visibility 2.0 miles
Clouds
Heat Index 109 °F
Dew Point 78 °F
Humidity 60%
Rainfall 0.00 in
Snow Depth Not available.
6:43 AM 7:47 PM
Waning Crescent, 22% visible
METAR KCTZ 271840Z AUTO 22005KT 2SM +RA 29/25 A3009 RMK AO2 SKY OBSCURED VIS 3/4V5 P0009 T02870249
Pressure 30.09 in
Visibility 2.0 miles
Clouds
Heat Index 109 °F
Dew Point 78 °F
Humidity 60%
Rainfall 0.00 in
Snow Depth Not available.
6:43 AM 7:47 PM
Waning Crescent, 22% visible
METAR KCTZ 271840Z AUTO 22005KT 2SM +RA 29/25 A3009 RMK AO2 SKY OBSCURED VIS 3/4V5 P0009 T02870249

10-Day Weather Forecast

Almanac

Astronomy

Aug. 27, 2016 Rise Set
Actual Time
Civil Twilight
Nautical Twilight
Astronomical Twilight
Moon
Length of Visible Light
Length of Day
Tomorrow will be .
, % of the Moon is Illuminated

Today's Extremes

State Highs State Lows

Community

WunderPhotos

Upload Photos

1,935,399 photos uploaded!

WunderBlog® & News

Nearby

Air Quality

  Air Quality AQ Index Pollutant
Not available.

Snow Depth

Station Depth Elevation

Earthquake Activity

City Distance Mag. Time & Date
Minimum magnitude displayed is 2.5.

Coastal Water Temperatures

Place Temperature

Stations

Nearby Weather Stations

Station Location Temp. Windchill Dew Point Humidity Wind Precip. Elev Updated Type
                   

Watches & Warnings

There are currently no watches in effect.